CPQ850 KLBB-KGLS
Flight info
| Callsign | CPQ850 |
|---|---|
| Flight time | 1h 28m |
| Altitude | 25000 |
| Route | WAGUN BWD AGJ LDRET |
| Aircraft | DH8D/M-SDE2E3FGRUY/L |
Departure
| Time | 2026-04-19 19:35 |
|---|---|
| Airport | Lubbock Preston Smith International Airport (KLBB) |
Arrival
| Time | 2026-04-19 21:04 |
|---|---|
| Airport | Scholes International At Galveston Airport (KGLS) |
| Time | Latitude | Longitude | Altitude | Speed | Heading |
|---|---|---|---|---|---|
| 2026-04-19 19:09 | 33.65757 | -101.81934 | 3262 ft | 0 kts | 277° |
| 2026-04-19 19:30 | 33.65771 | -101.81956 | 3261 ft | 5 kts | 343° |
| 2026-04-19 19:30 | 33.65815 | -101.82001 | 3261 ft | 13 kts | 272° |
| 2026-04-19 19:30 | 33.65815 | -101.82115 | 3261 ft | 13 kts | 270° |
| 2026-04-19 19:30 | 33.65803 | -101.82230 | 3260 ft | 15 kts | 250° |
| 2026-04-19 19:31 | 33.65831 | -101.82320 | 3258 ft | 15 kts | 329° |
| 2026-04-19 19:31 | 33.65950 | -101.82380 | 3258 ft | 20 kts | 354° |
| 2026-04-19 19:31 | 33.66029 | -101.82473 | 3258 ft | 20 kts | 268° |
| 2026-04-19 19:31 | 33.66030 | -101.82649 | 3258 ft | 18 kts | 284° |
| 2026-04-19 19:32 | 33.66142 | -101.82692 | 3258 ft | 20 kts | 359° |
| 2026-04-19 19:32 | 33.66301 | -101.82692 | 3258 ft | 23 kts | 3° |
| 2026-04-19 19:32 | 33.66459 | -101.82694 | 3261 ft | 22 kts | 359° |
| 2026-04-19 19:32 | 33.66617 | -101.82697 | 3261 ft | 22 kts | 359° |
| 2026-04-19 19:33 | 33.66771 | -101.82698 | 3261 ft | 20 kts | 359° |
| 2026-04-19 19:33 | 33.66902 | -101.82699 | 3263 ft | 17 kts | 360° |
| 2026-04-19 19:33 | 33.67016 | -101.82700 | 3265 ft | 16 kts | 0° |
| 2026-04-19 19:33 | 33.67169 | -101.82700 | 3265 ft | 27 kts | 360° |
| 2026-04-19 19:34 | 33.67341 | -101.82700 | 3269 ft | 17 kts | 360° |
| 2026-04-19 19:34 | 33.67399 | -101.82771 | 3271 ft | 12 kts | 269° |
| 2026-04-19 19:34 | 33.67399 | -101.82846 | 3272 ft | 8 kts | 271° |
| 2026-04-19 19:34 | 33.67364 | -101.82898 | 3272 ft | 11 kts | 181° |
| 2026-04-19 19:35 | 33.67175 | -101.82897 | 3268 ft | 57 kts | 179° |
| 2026-04-19 19:35 | 33.66505 | -101.82892 | 3262 ft | 128 kts | 179° |
| 2026-04-19 19:35 | 33.65500 | -101.82912 | 3404 ft | 154 kts | 182° |
| 2026-04-19 19:35 | 33.64407 | -101.82967 | 3884 ft | 161 kts | 181° |
| 2026-04-19 19:36 | 33.63226 | -101.83014 | 4218 ft | 179 kts | 180° |
| 2026-04-19 19:36 | 33.61991 | -101.82915 | 4723 ft | 181 kts | 159° |
| 2026-04-19 19:36 | 33.61100 | -101.81860 | 5043 ft | 196 kts | 112° |
| 2026-04-19 19:36 | 33.61210 | -101.80237 | 5551 ft | 205 kts | 66° |
| 2026-04-19 19:37 | 33.61969 | -101.78770 | 6050 ft | 208 kts | 65° |
| 2026-04-19 19:37 | 33.62523 | -101.77184 | 6569 ft | 206 kts | 76° |
| 2026-04-19 19:37 | 33.62864 | -101.75535 | 6992 ft | 210 kts | 84° |
| 2026-04-19 19:37 | 33.63037 | -101.73748 | 7293 ft | 220 kts | 90° |
| 2026-04-19 19:38 | 33.63052 | -101.71868 | 7661 ft | 227 kts | 95° |
| 2026-04-19 19:38 | 33.62951 | -101.69976 | 8060 ft | 232 kts | 98° |
| 2026-04-19 19:38 | 33.62763 | -101.68034 | 8496 ft | 236 kts | 101° |
| 2026-04-19 19:38 | 33.62516 | -101.66091 | 8925 ft | 238 kts | 102° |
| 2026-04-19 19:39 | 33.62222 | -101.64130 | 9382 ft | 241 kts | 103° |
| 2026-04-19 19:39 | 33.61894 | -101.62158 | 9824 ft | 243 kts | 104° |
| 2026-04-19 19:39 | 33.61539 | -101.60181 | 10248 ft | 245 kts | 104° |
| 2026-04-19 19:39 | 33.61163 | -101.58171 | 10681 ft | 246 kts | 105° |
| 2026-04-19 19:40 | 33.60776 | -101.56175 | 11122 ft | 247 kts | 104° |
| 2026-04-19 19:40 | 33.60378 | -101.54170 | 11557 ft | 248 kts | 105° |
| 2026-04-19 19:40 | 33.59970 | -101.52154 | 11961 ft | 249 kts | 105° |
| 2026-04-19 19:40 | 33.59560 | -101.50153 | 12348 ft | 250 kts | 104° |
| 2026-04-19 19:41 | 33.59141 | -101.48126 | 12734 ft | 250 kts | 104° |
| 2026-04-19 19:41 | 33.58718 | -101.46106 | 13109 ft | 251 kts | 104° |
| 2026-04-19 19:41 | 33.58295 | -101.44083 | 13467 ft | 251 kts | 104° |
| 2026-04-19 19:41 | 33.57866 | -101.42049 | 13822 ft | 252 kts | 104° |
| 2026-04-19 19:42 | 33.57437 | -101.40021 | 14161 ft | 252 kts | 104° |
| 2026-04-19 19:42 | 33.57011 | -101.38012 | 14483 ft | 252 kts | 104° |
| 2026-04-19 19:42 | 33.56575 | -101.35964 | 14802 ft | 252 kts | 104° |
| 2026-04-19 19:42 | 33.56146 | -101.33949 | 15100 ft | 252 kts | 104° |
| 2026-04-19 19:43 | 33.55710 | -101.31909 | 15281 ft | 258 kts | 104° |
| 2026-04-19 19:43 | 33.55259 | -101.29797 | 15427 ft | 265 kts | 104° |
| 2026-04-19 19:43 | 33.54791 | -101.27612 | 15612 ft | 269 kts | 104° |
| 2026-04-19 19:43 | 33.54328 | -101.25449 | 15821 ft | 273 kts | 104° |
| 2026-04-19 19:44 | 33.53854 | -101.23233 | 16038 ft | 276 kts | 104° |
| 2026-04-19 19:44 | 33.53373 | -101.20991 | 16267 ft | 278 kts | 104° |
| 2026-04-19 19:44 | 33.52891 | -101.18746 | 16489 ft | 280 kts | 104° |
| 2026-04-19 19:44 | 33.52410 | -101.16509 | 16723 ft | 281 kts | 104° |
| 2026-04-19 19:45 | 33.51922 | -101.14242 | 16959 ft | 282 kts | 104° |
| 2026-04-19 19:45 | 33.51426 | -101.11942 | 17189 ft | 283 kts | 104° |
| 2026-04-19 19:45 | 33.50934 | -101.09659 | 17415 ft | 284 kts | 104° |
| 2026-04-19 19:45 | 33.50444 | -101.07391 | 17642 ft | 285 kts | 104° |
| 2026-04-19 19:46 | 33.49941 | -101.05064 | 17862 ft | 286 kts | 104° |
| 2026-04-19 19:46 | 33.49448 | -101.02788 | 18080 ft | 286 kts | 104° |
| 2026-04-19 19:46 | 33.48948 | -101.00478 | 18293 ft | 287 kts | 104° |
| 2026-04-19 19:46 | 33.48446 | -100.98164 | 18504 ft | 288 kts | 104° |
| 2026-04-19 19:47 | 33.47941 | -100.95837 | 18708 ft | 288 kts | 104° |
| 2026-04-19 19:47 | 33.47437 | -100.93516 | 18900 ft | 289 kts | 104° |
| 2026-04-19 19:47 | 33.46926 | -100.91169 | 19062 ft | 292 kts | 104° |
| 2026-04-19 19:47 | 33.46416 | -100.88827 | 19168 ft | 297 kts | 104° |
| 2026-04-19 19:48 | 33.45892 | -100.86423 | 19298 ft | 300 kts | 104° |
| 2026-04-19 19:48 | 33.45359 | -100.83982 | 19444 ft | 303 kts | 104° |
| 2026-04-19 19:48 | 33.44830 | -100.81559 | 19598 ft | 305 kts | 104° |
| 2026-04-19 19:48 | 33.44291 | -100.79092 | 19763 ft | 307 kts | 105° |
| 2026-04-19 19:49 | 33.43748 | -100.76608 | 19933 ft | 308 kts | 105° |
| 2026-04-19 19:49 | 33.43209 | -100.74150 | 20110 ft | 309 kts | 105° |
| 2026-04-19 19:49 | 33.42666 | -100.71676 | 20285 ft | 310 kts | 105° |
| 2026-04-19 19:49 | 33.42113 | -100.69159 | 20450 ft | 310 kts | 105° |
| 2026-04-19 19:50 | 33.41571 | -100.66692 | 20619 ft | 311 kts | 105° |
| 2026-04-19 19:50 | 33.41020 | -100.64189 | 20789 ft | 311 kts | 105° |
| 2026-04-19 19:50 | 33.40468 | -100.61684 | 20951 ft | 311 kts | 105° |
| 2026-04-19 19:50 | 33.39918 | -100.59187 | 21105 ft | 312 kts | 104° |
| 2026-04-19 19:51 | 33.39365 | -100.56683 | 21257 ft | 312 kts | 104° |
| 2026-04-19 19:51 | 33.38806 | -100.54151 | 21404 ft | 313 kts | 105° |
| 2026-04-19 19:51 | 33.38187 | -100.51695 | 21527 ft | 312 kts | 115° |
| 2026-04-19 19:51 | 33.36916 | -100.49641 | 21594 ft | 306 kts | 140° |
| 2026-04-19 19:52 | 33.35331 | -100.47930 | 21731 ft | 306 kts | 142° |
| 2026-04-19 19:52 | 33.33740 | -100.46242 | 21861 ft | 306 kts | 142° |
| 2026-04-19 19:52 | 33.32151 | -100.44559 | 22000 ft | 307 kts | 142° |
| 2026-04-19 19:52 | 33.30536 | -100.42848 | 22133 ft | 307 kts | 142° |
| 2026-04-19 19:53 | 33.28958 | -100.41174 | 22267 ft | 308 kts | 142° |
| 2026-04-19 19:53 | 33.27337 | -100.39455 | 22398 ft | 308 kts | 142° |
| 2026-04-19 19:53 | 33.25737 | -100.37756 | 22528 ft | 308 kts | 142° |
| 2026-04-19 19:53 | 33.24133 | -100.36054 | 22651 ft | 309 kts | 142° |
| 2026-04-19 19:54 | 33.22543 | -100.34367 | 22764 ft | 309 kts | 143° |
| 2026-04-19 19:54 | 33.20935 | -100.32661 | 22883 ft | 309 kts | 143° |
| 2026-04-19 19:54 | 33.19334 | -100.30964 | 22991 ft | 309 kts | 143° |
| 2026-04-19 19:54 | 33.17707 | -100.29240 | 23096 ft | 309 kts | 143° |
| 2026-04-19 19:55 | 33.16118 | -100.27557 | 23191 ft | 310 kts | 143° |
| 2026-04-19 19:55 | 33.14509 | -100.25853 | 23293 ft | 310 kts | 143° |
| 2026-04-19 19:55 | 33.12880 | -100.24129 | 23394 ft | 310 kts | 143° |
| 2026-04-19 19:55 | 33.11272 | -100.22428 | 23490 ft | 310 kts | 143° |
| 2026-04-19 19:56 | 33.09660 | -100.20723 | 23583 ft | 311 kts | 143° |
| 2026-04-19 19:56 | 33.08047 | -100.19019 | 23674 ft | 311 kts | 143° |
| 2026-04-19 19:56 | 33.06428 | -100.17308 | 23759 ft | 311 kts | 143° |
| 2026-04-19 19:56 | 33.04808 | -100.15597 | 23845 ft | 312 kts | 143° |
| 2026-04-19 19:57 | 33.03186 | -100.13886 | 23936 ft | 312 kts | 143° |
| 2026-04-19 19:57 | 33.01550 | -100.12161 | 24027 ft | 312 kts | 143° |
| 2026-04-19 19:57 | 32.99932 | -100.10455 | 24104 ft | 312 kts | 143° |
| 2026-04-19 19:57 | 32.98306 | -100.08741 | 24186 ft | 312 kts | 143° |
| 2026-04-19 19:58 | 32.96677 | -100.07026 | 24265 ft | 312 kts | 143° |
| 2026-04-19 19:58 | 32.95053 | -100.05316 | 24338 ft | 313 kts | 143° |
| 2026-04-19 19:58 | 32.93418 | -100.03597 | 24417 ft | 313 kts | 144° |
| 2026-04-19 19:58 | 32.91787 | -100.01881 | 24499 ft | 313 kts | 143° |
| 2026-04-19 19:59 | 32.90156 | -100.00167 | 24576 ft | 313 kts | 144° |
| 2026-04-19 19:59 | 32.88530 | -99.98459 | 24652 ft | 313 kts | 143° |
| 2026-04-19 19:59 | 32.86894 | -99.96740 | 24718 ft | 313 kts | 144° |
| 2026-04-19 19:59 | 32.85266 | -99.95032 | 24784 ft | 312 kts | 144° |
| 2026-04-19 20:00 | 32.83641 | -99.93327 | 24841 ft | 312 kts | 144° |
| 2026-04-19 20:00 | 32.82020 | -99.91627 | 24897 ft | 312 kts | 144° |
| 2026-04-19 20:00 | 32.80388 | -99.89918 | 24951 ft | 312 kts | 144° |
| 2026-04-19 20:00 | 32.78755 | -99.88207 | 25006 ft | 312 kts | 144° |
| 2026-04-19 20:01 | 32.77128 | -99.86504 | 25051 ft | 312 kts | 144° |
| 2026-04-19 20:01 | 32.75485 | -99.84785 | 25093 ft | 313 kts | 144° |
| 2026-04-19 20:01 | 32.73860 | -99.83086 | 25144 ft | 312 kts | 144° |
| 2026-04-19 20:01 | 32.72214 | -99.81367 | 25185 ft | 313 kts | 144° |
| 2026-04-19 20:02 | 32.70578 | -99.79657 | 25239 ft | 314 kts | 144° |
| 2026-04-19 20:02 | 32.68951 | -99.77959 | 25284 ft | 314 kts | 144° |
| 2026-04-19 20:02 | 32.67302 | -99.76241 | 25291 ft | 317 kts | 144° |
| 2026-04-19 20:02 | 32.65653 | -99.74522 | 25296 ft | 319 kts | 144° |
| 2026-04-19 20:03 | 32.63976 | -99.72775 | 25300 ft | 322 kts | 144° |
| 2026-04-19 20:03 | 32.62282 | -99.71010 | 25304 ft | 324 kts | 144° |
| 2026-04-19 20:03 | 32.60582 | -99.69241 | 25313 ft | 327 kts | 144° |
| 2026-04-19 20:03 | 32.58872 | -99.67461 | 25313 ft | 329 kts | 145° |
| 2026-04-19 20:04 | 32.57158 | -99.65678 | 25313 ft | 331 kts | 144° |
| 2026-04-19 20:04 | 32.55405 | -99.63856 | 25315 ft | 334 kts | 144° |
| 2026-04-19 20:04 | 32.53666 | -99.62049 | 25330 ft | 336 kts | 144° |
| 2026-04-19 20:04 | 32.51897 | -99.60210 | 25325 ft | 338 kts | 144° |
| 2026-04-19 20:05 | 32.50123 | -99.58369 | 25321 ft | 340 kts | 144° |
| 2026-04-19 20:05 | 32.48328 | -99.56506 | 25323 ft | 343 kts | 144° |
| 2026-04-19 20:05 | 32.46532 | -99.54644 | 25333 ft | 345 kts | 144° |
| 2026-04-19 20:05 | 32.44722 | -99.52769 | 25327 ft | 347 kts | 144° |
| 2026-04-19 20:06 | 32.42923 | -99.50905 | 25327 ft | 349 kts | 144° |
| 2026-04-19 20:06 | 32.41083 | -99.49000 | 25321 ft | 351 kts | 144° |
| 2026-04-19 20:06 | 32.39235 | -99.47088 | 25317 ft | 353 kts | 144° |
| 2026-04-19 20:06 | 32.37378 | -99.45167 | 25318 ft | 355 kts | 144° |
| 2026-04-19 20:07 | 32.35516 | -99.43243 | 25309 ft | 356 kts | 144° |
| 2026-04-19 20:07 | 32.33648 | -99.41312 | 25314 ft | 358 kts | 144° |
| 2026-04-19 20:07 | 32.31770 | -99.39374 | 25313 ft | 359 kts | 144° |
| 2026-04-19 20:07 | 32.29909 | -99.37453 | 25307 ft | 360 kts | 144° |
| 2026-04-19 20:08 | 32.28024 | -99.35510 | 25310 ft | 361 kts | 144° |
| 2026-04-19 20:08 | 32.26115 | -99.33542 | 25299 ft | 361 kts | 145° |
| 2026-04-19 20:08 | 32.24217 | -99.31587 | 25295 ft | 362 kts | 145° |
| 2026-04-19 20:08 | 32.22321 | -99.29634 | 25300 ft | 362 kts | 145° |
| 2026-04-19 20:09 | 32.20422 | -99.27681 | 25303 ft | 362 kts | 145° |
| 2026-04-19 20:09 | 32.18518 | -99.25723 | 25300 ft | 362 kts | 145° |
| 2026-04-19 20:09 | 32.16637 | -99.23790 | 25300 ft | 362 kts | 145° |
| 2026-04-19 20:09 | 32.14731 | -99.21833 | 25305 ft | 362 kts | 145° |
| 2026-04-19 20:10 | 32.12834 | -99.19885 | 25305 ft | 362 kts | 145° |
| 2026-04-19 20:10 | 32.10925 | -99.17927 | 25299 ft | 363 kts | 145° |
| 2026-04-19 20:10 | 32.09021 | -99.15975 | 25300 ft | 363 kts | 145° |
| 2026-04-19 20:10 | 32.07113 | -99.14020 | 25301 ft | 363 kts | 145° |
| 2026-04-19 20:11 | 32.05214 | -99.12076 | 25300 ft | 363 kts | 145° |
| 2026-04-19 20:11 | 32.03308 | -99.10125 | 25298 ft | 363 kts | 145° |
| 2026-04-19 20:11 | 32.01403 | -99.08177 | 25298 ft | 363 kts | 145° |
| 2026-04-19 20:11 | 31.99490 | -99.06222 | 25307 ft | 363 kts | 145° |
| 2026-04-19 20:12 | 31.97588 | -99.04279 | 25309 ft | 363 kts | 145° |
| 2026-04-19 20:12 | 31.95678 | -99.02329 | 25300 ft | 363 kts | 145° |
| 2026-04-19 20:12 | 31.93768 | -99.00378 | 25305 ft | 364 kts | 145° |
| 2026-04-19 20:12 | 31.91861 | -98.98434 | 25305 ft | 364 kts | 145° |
| 2026-04-19 20:13 | 31.89944 | -98.96480 | 25313 ft | 363 kts | 145° |
| 2026-04-19 20:13 | 31.88061 | -98.94510 | 25315 ft | 365 kts | 142° |
| 2026-04-19 20:13 | 31.86245 | -98.92398 | 25310 ft | 367 kts | 141° |
| 2026-04-19 20:13 | 31.84450 | -98.90276 | 25315 ft | 367 kts | 140° |
| 2026-04-19 20:14 | 31.82652 | -98.88156 | 25317 ft | 367 kts | 141° |
| 2026-04-19 20:14 | 31.80846 | -98.86036 | 25323 ft | 367 kts | 141° |
| 2026-04-19 20:14 | 31.79039 | -98.83921 | 25321 ft | 367 kts | 141° |
| 2026-04-19 20:14 | 31.77218 | -98.81794 | 25314 ft | 367 kts | 141° |
| 2026-04-19 20:15 | 31.75409 | -98.79684 | 25322 ft | 367 kts | 141° |
| 2026-04-19 20:15 | 31.73581 | -98.77557 | 25313 ft | 368 kts | 141° |
| 2026-04-19 20:15 | 31.71774 | -98.75456 | 25308 ft | 369 kts | 141° |
| 2026-04-19 20:15 | 31.69947 | -98.73335 | 25301 ft | 369 kts | 141° |
| 2026-04-19 20:16 | 31.68115 | -98.71210 | 25290 ft | 370 kts | 141° |
| 2026-04-19 20:16 | 31.66298 | -98.69104 | 25281 ft | 370 kts | 141° |
| 2026-04-19 20:16 | 31.64466 | -98.66981 | 25294 ft | 370 kts | 141° |
| 2026-04-19 20:16 | 31.62633 | -98.64859 | 25298 ft | 370 kts | 141° |
| 2026-04-19 20:17 | 31.60790 | -98.62727 | 25288 ft | 370 kts | 141° |
| 2026-04-19 20:17 | 31.58970 | -98.60624 | 25292 ft | 370 kts | 141° |
| 2026-04-19 20:17 | 31.57136 | -98.58504 | 25282 ft | 370 kts | 141° |
| 2026-04-19 20:17 | 31.55308 | -98.56393 | 25286 ft | 370 kts | 141° |
| 2026-04-19 20:18 | 31.53467 | -98.54269 | 25287 ft | 370 kts | 141° |
| 2026-04-19 20:18 | 31.51656 | -98.52182 | 25291 ft | 370 kts | 141° |
| 2026-04-19 20:18 | 31.49823 | -98.50069 | 25291 ft | 370 kts | 141° |
| 2026-04-19 20:18 | 31.47968 | -98.47933 | 25285 ft | 370 kts | 141° |
| 2026-04-19 20:19 | 31.46155 | -98.45847 | 25280 ft | 370 kts | 142° |
| 2026-04-19 20:19 | 31.44311 | -98.43726 | 25284 ft | 370 kts | 141° |
| 2026-04-19 20:19 | 31.42479 | -98.41619 | 25284 ft | 370 kts | 141° |
| 2026-04-19 20:19 | 31.40638 | -98.39504 | 25275 ft | 370 kts | 142° |
| 2026-04-19 20:20 | 31.38799 | -98.37393 | 25275 ft | 370 kts | 141° |
| 2026-04-19 20:20 | 31.36963 | -98.35287 | 25282 ft | 371 kts | 141° |
| 2026-04-19 20:20 | 31.35099 | -98.33149 | 25284 ft | 370 kts | 142° |
| 2026-04-19 20:20 | 31.33260 | -98.31041 | 25286 ft | 370 kts | 142° |
| 2026-04-19 20:21 | 31.31420 | -98.28931 | 25282 ft | 369 kts | 142° |
| 2026-04-19 20:21 | 31.29583 | -98.26828 | 25287 ft | 369 kts | 142° |
| 2026-04-19 20:21 | 31.27747 | -98.24727 | 25277 ft | 369 kts | 142° |
| 2026-04-19 20:21 | 31.25936 | -98.22656 | 25276 ft | 369 kts | 142° |
| 2026-04-19 20:22 | 31.24097 | -98.20554 | 25278 ft | 369 kts | 142° |
| 2026-04-19 20:22 | 31.22253 | -98.18449 | 25275 ft | 369 kts | 142° |
| 2026-04-19 20:22 | 31.20439 | -98.16378 | 25277 ft | 369 kts | 142° |
| 2026-04-19 20:22 | 31.18602 | -98.14281 | 25281 ft | 369 kts | 142° |
| 2026-04-19 20:23 | 31.16790 | -98.12142 | 25276 ft | 370 kts | 140° |
| 2026-04-19 20:23 | 31.15013 | -98.09950 | 25274 ft | 370 kts | 140° |
| 2026-04-19 20:23 | 31.13244 | -98.07765 | 25268 ft | 370 kts | 140° |
| 2026-04-19 20:23 | 31.11491 | -98.05605 | 25275 ft | 370 kts | 140° |
| 2026-04-19 20:24 | 31.09713 | -98.03418 | 25278 ft | 371 kts | 140° |
| 2026-04-19 20:24 | 31.07947 | -98.01250 | 25283 ft | 371 kts | 140° |
| 2026-04-19 20:24 | 31.06164 | -97.99065 | 25279 ft | 371 kts | 140° |
| 2026-04-19 20:24 | 31.04377 | -97.96877 | 25278 ft | 371 kts | 140° |
| 2026-04-19 20:25 | 31.02612 | -97.94718 | 25279 ft | 371 kts | 140° |
| 2026-04-19 20:25 | 31.00822 | -97.92531 | 25287 ft | 371 kts | 140° |
| 2026-04-19 20:25 | 30.99036 | -97.90350 | 25298 ft | 371 kts | 140° |
| 2026-04-19 20:25 | 30.97247 | -97.88168 | 25291 ft | 372 kts | 140° |
| 2026-04-19 20:26 | 30.95477 | -97.86010 | 25292 ft | 372 kts | 140° |
| 2026-04-19 20:26 | 30.93680 | -97.83820 | 25305 ft | 372 kts | 140° |
| 2026-04-19 20:26 | 30.91891 | -97.81642 | 25303 ft | 372 kts | 140° |
| 2026-04-19 20:26 | 30.90098 | -97.79460 | 25292 ft | 372 kts | 140° |
| 2026-04-19 20:27 | 30.88317 | -97.77295 | 25288 ft | 373 kts | 140° |
| 2026-04-19 20:27 | 30.86518 | -97.75108 | 25287 ft | 373 kts | 140° |
| 2026-04-19 20:27 | 30.84722 | -97.72926 | 25288 ft | 373 kts | 140° |
| 2026-04-19 20:27 | 30.82924 | -97.70744 | 25288 ft | 373 kts | 140° |
| 2026-04-19 20:28 | 30.81145 | -97.68586 | 25294 ft | 373 kts | 140° |
| 2026-04-19 20:28 | 30.79344 | -97.66402 | 25299 ft | 373 kts | 140° |
| 2026-04-19 20:28 | 30.77563 | -97.64244 | 25291 ft | 373 kts | 140° |
| 2026-04-19 20:28 | 30.75760 | -97.62060 | 25289 ft | 373 kts | 140° |
| 2026-04-19 20:29 | 30.73955 | -97.59877 | 25291 ft | 374 kts | 140° |
| 2026-04-19 20:29 | 30.72173 | -97.57720 | 25298 ft | 373 kts | 140° |
| 2026-04-19 20:29 | 30.70365 | -97.55535 | 25295 ft | 373 kts | 140° |
| 2026-04-19 20:30 | 30.66749 | -97.51167 | 25287 ft | 374 kts | 140° |
| 2026-04-19 20:30 | 30.64961 | -97.49009 | 25283 ft | 374 kts | 140° |
| 2026-04-19 20:30 | 30.63160 | -97.46836 | 25282 ft | 374 kts | 140° |
| 2026-04-19 20:30 | 30.61349 | -97.44654 | 25274 ft | 374 kts | 140° |
| 2026-04-19 20:31 | 30.59564 | -97.42503 | 25266 ft | 374 kts | 140° |
| 2026-04-19 20:31 | 30.57734 | -97.40300 | 25269 ft | 374 kts | 140° |
| 2026-04-19 20:31 | 30.55939 | -97.38140 | 25260 ft | 374 kts | 140° |
| 2026-04-19 20:31 | 30.54124 | -97.35957 | 25259 ft | 374 kts | 139° |
| 2026-04-19 20:32 | 30.52328 | -97.33798 | 25254 ft | 374 kts | 140° |
| 2026-04-19 20:32 | 30.50519 | -97.31623 | 25255 ft | 373 kts | 140° |
| 2026-04-19 20:32 | 30.48714 | -97.29456 | 25255 ft | 372 kts | 140° |
| 2026-04-19 20:32 | 30.46910 | -97.27290 | 25255 ft | 372 kts | 140° |
| 2026-04-19 20:33 | 30.45132 | -97.25158 | 25256 ft | 372 kts | 140° |
| 2026-04-19 20:33 | 30.43327 | -97.22995 | 25253 ft | 371 kts | 140° |
| 2026-04-19 20:33 | 30.41532 | -97.20844 | 25255 ft | 371 kts | 140° |
| 2026-04-19 20:33 | 30.39735 | -97.18693 | 25250 ft | 370 kts | 140° |
| 2026-04-19 20:34 | 30.37945 | -97.16551 | 25253 ft | 370 kts | 140° |
| 2026-04-19 20:34 | 30.36156 | -97.14412 | 25256 ft | 370 kts | 140° |
| 2026-04-19 20:34 | 30.34382 | -97.12292 | 25257 ft | 369 kts | 140° |
| 2026-04-19 20:34 | 30.32594 | -97.10156 | 25267 ft | 369 kts | 140° |
| 2026-04-19 20:35 | 30.30795 | -97.08009 | 25269 ft | 369 kts | 140° |
| 2026-04-19 20:35 | 30.29025 | -97.05895 | 25270 ft | 369 kts | 140° |
| 2026-04-19 20:35 | 30.27228 | -97.03753 | 25268 ft | 369 kts | 140° |
| 2026-04-19 20:35 | 30.25437 | -97.01619 | 25271 ft | 369 kts | 140° |
| 2026-04-19 20:36 | 30.23652 | -96.99493 | 25271 ft | 369 kts | 140° |
| 2026-04-19 20:36 | 30.21864 | -96.97363 | 25281 ft | 369 kts | 140° |
| 2026-04-19 20:36 | 30.20097 | -96.95261 | 25278 ft | 369 kts | 140° |
| 2026-04-19 20:36 | 30.18303 | -96.93127 | 25275 ft | 369 kts | 140° |
| 2026-04-19 20:37 | 30.16509 | -96.90995 | 25280 ft | 369 kts | 140° |
| 2026-04-19 20:37 | 30.14720 | -96.88871 | 25281 ft | 369 kts | 140° |
| 2026-04-19 20:37 | 30.12932 | -96.86749 | 25274 ft | 369 kts | 140° |
| 2026-04-19 20:37 | 30.11130 | -96.84611 | 25268 ft | 370 kts | 140° |
| 2026-04-19 20:38 | 30.09354 | -96.82504 | 25261 ft | 370 kts | 141° |
| 2026-04-19 20:38 | 30.07537 | -96.80351 | 25255 ft | 371 kts | 140° |
| 2026-04-19 20:38 | 30.05732 | -96.78213 | 25253 ft | 371 kts | 141° |
| 2026-04-19 20:38 | 30.03930 | -96.76079 | 25253 ft | 371 kts | 140° |
| 2026-04-19 20:39 | 30.02138 | -96.73958 | 25249 ft | 372 kts | 140° |
| 2026-04-19 20:39 | 30.00327 | -96.71816 | 25246 ft | 372 kts | 140° |
| 2026-04-19 20:39 | 29.98512 | -96.69671 | 25249 ft | 371 kts | 140° |
| 2026-04-19 20:39 | 29.96714 | -96.67545 | 25241 ft | 371 kts | 140° |
| 2026-04-19 20:40 | 29.94897 | -96.65401 | 25243 ft | 371 kts | 140° |
| 2026-04-19 20:40 | 29.93102 | -96.63282 | 25243 ft | 371 kts | 141° |
| 2026-04-19 20:40 | 29.91311 | -96.61169 | 25248 ft | 371 kts | 140° |
| 2026-04-19 20:40 | 29.89500 | -96.59034 | 25245 ft | 371 kts | 140° |
| 2026-04-19 20:41 | 29.87694 | -96.56907 | 25242 ft | 371 kts | 141° |
| 2026-04-19 20:41 | 29.85881 | -96.54773 | 25239 ft | 371 kts | 140° |
| 2026-04-19 20:41 | 29.84097 | -96.52673 | 25238 ft | 371 kts | 140° |
| 2026-04-19 20:41 | 29.82289 | -96.50546 | 25238 ft | 371 kts | 140° |
| 2026-04-19 20:42 | 29.80479 | -96.48419 | 25235 ft | 370 kts | 141° |
| 2026-04-19 20:42 | 29.78684 | -96.46310 | 25227 ft | 370 kts | 140° |
| 2026-04-19 20:42 | 29.76870 | -96.44179 | 25231 ft | 370 kts | 140° |
| 2026-04-19 20:42 | 29.75067 | -96.42063 | 25228 ft | 370 kts | 140° |
| 2026-04-19 20:43 | 29.73261 | -96.39945 | 25235 ft | 370 kts | 140° |
| 2026-04-19 20:43 | 29.71473 | -96.37849 | 25232 ft | 370 kts | 140° |
| 2026-04-19 20:43 | 29.69655 | -96.35719 | 25235 ft | 370 kts | 141° |
| 2026-04-19 20:43 | 29.67860 | -96.33617 | 25234 ft | 370 kts | 141° |
| 2026-04-19 20:44 | 29.66137 | -96.31425 | 25227 ft | 375 kts | 131° |
| 2026-04-19 20:44 | 29.64780 | -96.28824 | 25247 ft | 378 kts | 123° |
| 2026-04-19 20:44 | 29.63529 | -96.26176 | 25245 ft | 379 kts | 123° |
| 2026-04-19 20:44 | 29.62270 | -96.23507 | 25239 ft | 379 kts | 123° |
| 2026-04-19 20:45 | 29.61017 | -96.20859 | 25236 ft | 379 kts | 123° |
| 2026-04-19 20:45 | 29.59752 | -96.18194 | 25234 ft | 380 kts | 123° |
| 2026-04-19 20:45 | 29.58484 | -96.15532 | 25235 ft | 380 kts | 123° |
| 2026-04-19 20:45 | 29.57227 | -96.12897 | 25222 ft | 381 kts | 123° |
| 2026-04-19 20:46 | 29.55952 | -96.10223 | 25225 ft | 381 kts | 123° |
| 2026-04-19 20:46 | 29.54676 | -96.07556 | 25223 ft | 381 kts | 124° |
| 2026-04-19 20:46 | 29.53397 | -96.04888 | 25227 ft | 380 kts | 124° |
| 2026-04-19 20:46 | 29.52140 | -96.02260 | 24955 ft | 380 kts | 123° |
| 2026-04-19 20:47 | 29.50862 | -95.99590 | 24529 ft | 380 kts | 123° |
| 2026-04-19 20:47 | 29.49603 | -95.96965 | 24070 ft | 380 kts | 123° |
| 2026-04-19 20:47 | 29.48318 | -95.94289 | 23577 ft | 381 kts | 122° |
| 2026-04-19 20:47 | 29.47033 | -95.91615 | 23093 ft | 381 kts | 122° |
| 2026-04-19 20:48 | 29.45770 | -95.88989 | 22614 ft | 381 kts | 122° |
| 2026-04-19 20:48 | 29.44485 | -95.86320 | 22125 ft | 381 kts | 122° |
| 2026-04-19 20:48 | 29.43196 | -95.83646 | 21637 ft | 381 kts | 122° |
| 2026-04-19 20:48 | 29.41925 | -95.81010 | 21152 ft | 381 kts | 121° |
| 2026-04-19 20:49 | 29.40638 | -95.78342 | 20665 ft | 381 kts | 121° |
| 2026-04-19 20:49 | 29.39368 | -95.75714 | 20183 ft | 381 kts | 121° |
| 2026-04-19 20:49 | 29.38086 | -95.73063 | 19695 ft | 380 kts | 121° |
| 2026-04-19 20:49 | 29.36801 | -95.70406 | 19213 ft | 380 kts | 120° |
| 2026-04-19 20:50 | 29.35531 | -95.67783 | 18726 ft | 380 kts | 120° |
| 2026-04-19 20:50 | 29.34253 | -95.65144 | 18242 ft | 379 kts | 120° |
| 2026-04-19 20:50 | 29.32977 | -95.62511 | 17763 ft | 378 kts | 120° |
| 2026-04-19 20:50 | 29.31698 | -95.59875 | 17281 ft | 377 kts | 120° |
| 2026-04-19 20:51 | 29.30425 | -95.57252 | 16795 ft | 375 kts | 120° |
| 2026-04-19 20:51 | 29.29163 | -95.54655 | 16320 ft | 373 kts | 120° |
| 2026-04-19 20:51 | 29.27914 | -95.52084 | 15789 ft | 373 kts | 119° |
| 2026-04-19 20:51 | 29.26645 | -95.49478 | 15121 ft | 374 kts | 119° |
| 2026-04-19 20:52 | 29.25383 | -95.46884 | 14587 ft | 367 kts | 119° |
| 2026-04-19 20:52 | 29.24170 | -95.44392 | 14128 ft | 359 kts | 119° |
| 2026-04-19 20:52 | 29.22959 | -95.41905 | 13674 ft | 352 kts | 119° |
| 2026-04-19 20:52 | 29.21775 | -95.39481 | 13235 ft | 346 kts | 119° |
| 2026-04-19 20:53 | 29.20627 | -95.37128 | 12799 ft | 340 kts | 119° |
| 2026-04-19 20:53 | 29.19479 | -95.34777 | 12366 ft | 333 kts | 119° |
| 2026-04-19 20:53 | 29.18356 | -95.32470 | 11939 ft | 328 kts | 119° |
| 2026-04-19 20:53 | 29.17270 | -95.30245 | 11525 ft | 322 kts | 119° |
| 2026-04-19 20:54 | 29.16185 | -95.28027 | 11118 ft | 317 kts | 119° |
| 2026-04-19 20:54 | 29.15111 | -95.25839 | 10717 ft | 312 kts | 119° |
| 2026-04-19 20:54 | 29.14060 | -95.23689 | 10321 ft | 308 kts | 119° |
| 2026-04-19 20:54 | 29.13027 | -95.21574 | 9931 ft | 303 kts | 119° |
| 2026-04-19 20:55 | 29.12009 | -95.19494 | 9552 ft | 299 kts | 118° |
| 2026-04-19 20:55 | 29.10989 | -95.17413 | 9165 ft | 294 kts | 118° |
| 2026-04-19 20:55 | 29.10009 | -95.15411 | 8794 ft | 287 kts | 118° |
| 2026-04-19 20:55 | 29.09034 | -95.13430 | 8426 ft | 281 kts | 119° |
| 2026-04-19 20:56 | 29.08087 | -95.11492 | 8071 ft | 275 kts | 118° |
| 2026-04-19 20:56 | 29.07171 | -95.09613 | 7715 ft | 270 kts | 118° |
| 2026-04-19 20:56 | 29.06270 | -95.07779 | 7384 ft | 265 kts | 118° |
| 2026-04-19 20:56 | 29.05392 | -95.05949 | 7039 ft | 260 kts | 115° |
| 2026-04-19 20:57 | 29.05008 | -95.03987 | 6723 ft | 252 kts | 93° |
| 2026-04-19 20:57 | 29.04975 | -95.01998 | 6394 ft | 248 kts | 91° |
| 2026-04-19 20:57 | 29.04958 | -95.00035 | 6076 ft | 242 kts | 90° |
| 2026-04-19 20:57 | 29.04944 | -94.98152 | 5770 ft | 234 kts | 90° |
| 2026-04-19 20:58 | 29.04929 | -94.96332 | 5473 ft | 225 kts | 90° |
| 2026-04-19 20:58 | 29.04911 | -94.94579 | 5196 ft | 216 kts | 89° |
| 2026-04-19 20:58 | 29.04893 | -94.92902 | 4921 ft | 205 kts | 90° |
| 2026-04-19 20:58 | 29.04873 | -94.91328 | 4655 ft | 196 kts | 89° |
| 2026-04-19 20:59 | 29.04859 | -94.89791 | 4440 ft | 191 kts | 89° |
| 2026-04-19 20:59 | 29.04851 | -94.88259 | 4172 ft | 193 kts | 87° |
| 2026-04-19 20:59 | 29.05333 | -94.86835 | 3753 ft | 196 kts | 45° |
| 2026-04-19 20:59 | 29.06548 | -94.86264 | 3558 ft | 194 kts | 10° |
| 2026-04-19 21:00 | 29.07893 | -94.86207 | 3316 ft | 193 kts | 6° |
| 2026-04-19 21:00 | 29.09238 | -94.86185 | 3062 ft | 192 kts | 6° |
| 2026-04-19 21:00 | 29.10580 | -94.86169 | 2814 ft | 191 kts | 6° |
| 2026-04-19 21:00 | 29.11912 | -94.86155 | 2568 ft | 191 kts | 5° |
| 2026-04-19 21:01 | 29.13248 | -94.86134 | 2321 ft | 190 kts | 6° |
| 2026-04-19 21:01 | 29.14563 | -94.86115 | 2081 ft | 189 kts | 7° |
| 2026-04-19 21:01 | 29.15878 | -94.86093 | 1838 ft | 184 kts | 7° |
| 2026-04-19 21:01 | 29.17110 | -94.86083 | 1616 ft | 168 kts | 7° |
| 2026-04-19 21:02 | 29.18251 | -94.86071 | 1405 ft | 158 kts | 8° |
| 2026-04-19 21:02 | 29.19330 | -94.86056 | 1199 ft | 152 kts | 8° |
| 2026-04-19 21:02 | 29.20361 | -94.86037 | 1049 ft | 142 kts | 8° |
| 2026-04-19 21:02 | 29.21345 | -94.86017 | 826 ft | 138 kts | 8° |
| 2026-04-19 21:03 | 29.22277 | -94.85998 | 641 ft | 132 kts | 8° |
| 2026-04-19 21:03 | 29.23172 | -94.85986 | 487 ft | 122 kts | 7° |
| 2026-04-19 21:03 | 29.23988 | -94.85967 | 343 ft | 114 kts | 9° |
| 2026-04-19 21:03 | 29.24800 | -94.85947 | 203 ft | 117 kts | 7° |
| 2026-04-19 21:04 | 29.25625 | -94.85938 | 69 ft | 120 kts | 7° |
| 2026-04-19 21:04 | 29.26394 | -94.85923 | 13 ft | 84 kts | 3° |
| 2026-04-19 21:04 | 29.26760 | -94.85917 | 11 ft | 21 kts | 0° |
| 2026-04-19 21:04 | 29.26801 | -94.85867 | 11 ft | 6 kts | 91° |
| 2026-04-19 21:05 | 29.26800 | -94.85827 | 11 ft | 3 kts | 91° |
| 2026-04-19 21:05 | 29.26799 | -94.85796 | 11 ft | 4 kts | 94° |
| 2026-04-19 21:05 | 29.26799 | -94.85759 | 11 ft | 5 kts | 72° |
| 2026-04-19 21:05 | 29.26837 | -94.85741 | 12 ft | 5 kts | 0° |
| 2026-04-19 21:06 | 29.26858 | -94.85717 | 12 ft | 5 kts | 88° |
| 2026-04-19 21:06 | 29.26858 | -94.85661 | 13 ft | 6 kts | 90° |
| 2026-04-19 21:06 | 29.26858 | -94.85626 | 13 ft | 2 kts | 90° |
| 2026-04-19 21:06 | 29.26853 | -94.85599 | 13 ft | 2 kts | 130° |
| 2026-04-19 21:07 | 29.26838 | -94.85593 | 13 ft | 3 kts | 171° |
| 2026-04-19 21:07 | 29.26825 | -94.85592 | 13 ft | 0 kts | 179° |